Terminal Aerodrome Forecast
Issued by NWS Omaha/Valley, NE

Home | Current Version | Previous Version | Text Only | Print | Product List | Glossary On
Versions: 1 2 3 4 5 6 7 8 9 10 11 12 13 14 15 16 17 18 19 20 21 22 23 24 25 26 27 28 29 30 31 32 33 34 35 36 37 38 39 40 41 42 43 44 45 46
000
FTUS43 KOAX 061124
TAFOMA
TAF
KOMA 061124Z 0612/0712 32012KT 6SM -SHRA BR OVC050
     FM061600 34014G23KT 6SM -SHRA BR OVC025
     FM062100 35014G23KT P6SM OVC040
     FM070200 36011KT P6SM BKN150=

USA.gov is the U.S. government's official web portal to all federal, state and local government web resources and services.